Nearby METAR Reports

 

EGWC - Cosford Raf, United Kingdom
Distance from station: SSW 22km
Updated: 13/04/2024 22:50

 Wind from WSW
Wind: WSW 6 km/h
2024/04/13 21:50 EGWC 132150Z AUTO 25003KT //// ///////// ///// Q////
EGOS - Shawbury Raf, United Kingdom
Distance from station: W 37km
Updated: 13/04/2024 22:50
Clear
Clear
 Wind from WSW
Wind: WSW 9 km/h
Temperature: 8°C
Wind Chill: 6°C
Dew Point: 4°C
Humidity: 76%
Barometer: 1022 hPa
Clouds: Clear
Visibility: 10 km
2024/04/13 21:50 EGOS 132150Z AUTO 25005KT 9999 NCD 08/04 Q1022
 
EGBB - Birmingham Airpo, United Kingdom
Distance from station: SE 44km
Updated: 13/04/2024 23:20
Clear
Clear
 Wind from W
Wind: W 13 km/h
Temperature: 10°C
Wind Chill: 8°C
Dew Point: 5°C
Humidity: 71%
Barometer: 1022 hPa
Summary: Clear
Visibility: greater than 10 km
2024/04/13 22:20 EGBB 132220Z 28007KT CAVOK 10/05 Q1022
EGNX - East Midlands, United Kingdom
Distance from station: E 54km
Updated: 13/04/2024 23:20
Clear
Clear
 Wind from W
Wind: W 17 km/h
Temperature: 8°C
Wind Chill: 5°C
Dew Point: 3°C
Humidity: 71%
Barometer: 1021 hPa
Summary: Clear
Visibility: greater than 10 km
2024/04/13 22:20 EGNX 132220Z 27009KT CAVOK 08/03 Q1021
 
EGCC - Manchester Intl, United Kingdom
Distance from station: N 63km
Updated: 13/04/2024 23:20
Clear
Clear
 Wind from SW
Wind: SW 15 km/h
Temperature: 6°C
Wind Chill: 3°C
Dew Point: 4°C
Humidity: 87%
Barometer: 1021 hPa
Clouds: Clear
Visibility: 10 km
2024/04/13 22:20 EGCC 132220Z AUTO 23008KT 9999 NCD 06/04 Q1021 NOSIG
EGBE - Coventry Airport, United Kingdom
Distance from station: SE 65km
Updated: 18/07/2017 14:50
NOT Current
Clear
Clear
 Wind from E
Wind: E 26 km/h
Temperature: 27°C
Heat Index: 27°C
Dew Point: 14°C
Humidity: 45%
Barometer: 1015 hPa
Summary: Clear
Visibility: greater than 10 km
2017/07/18 13:50 EGBE 181350Z 10014KT 060V120 CAVOK 27/14 Q1015
 
EGNR - Hawarden (aut), United Kingdom
Distance from station: NW 70km
Updated: 13/04/2024 17:50
NOT Current
Light rain, Showers, Mostly cloudy
Light rain, Showers, Mostly cloudy
 Wind from W
Wind: W 22 km/h, Gust: 46 km/h
Temperature: 12°C
Dew Point: 8°C
Humidity: 77%
Barometer: 1018 hPa
Summary: Light rain, Showers
Clouds: Mostly cloudy
Visibility: 10 km
Cloud details: Partly cloudy 701 m
Mostly cloudy 1189 m
2024/04/13 16:50 EGNR 131650Z 28012G25KT 240V320 9999 -SHRA SCT023 BKN039 12/08 Q1018
EGGP - Liverpool Airpor, United Kingdom
Distance from station: NW 76km
Updated: 13/04/2024 23:20
Clear
Clear
 Wind from W
Wind: W 22 km/h
Temperature: 8°C
Wind Chill: 4°C
Dew Point: 4°C
Humidity: 76%
Barometer: 1021 hPa
Summary: Clear
Visibility: greater than 10 km
2024/04/13 22:20 EGGP 132220Z 27012KT CAVOK 08/04 Q1021